Time;durP1;ratioP1;P1;durP2;ratioP2;P2;SDS_P1;SDS_P2;PMS_P1;PMS_P2;Temp;Humidity;BMP_temperature;BMP_pressure;BME280_temperature;BME280_humidity;BME280_pressure;Samples;Min_cycle;Max_cycle;Signal;HPM_P1;HPM_P2
2023/05/05 00:01:51;;;;;;;5.00;4.70;;;21.00;73.30;;;;;;5075243;28;20455;-74
2023/05/05 00:04:16;;;;;;;5.37;4.97;;;21.00;73.30;;;;;;5057472;28;20396;-74
2023/05/05 00:06:46;;;;;;;6.03;5.20;;;21.00;73.40;;;;;;5040851;28;21034;-74
2023/05/05 00:09:12;;;;;;;5.17;4.77;;;21.00;73.40;;;;;;5057534;28;20242;-74
2023/05/05 00:11:40;;;;;;;4.47;4.13;;;21.00;73.40;;;;;;5057321;28;20444;-74
2023/05/05 00:14:08;;;;;;;5.27;4.73;;;21.00;73.40;;;;;;5024405;28;20917;-74
2023/05/05 00:16:34;;;;;;;5.30;4.80;;;21.00;73.40;;;;;;5023953;28;20472;-74
2023/05/05 00:19:02;;;;;;;4.87;4.47;;;21.00;73.50;;;;;;5040391;28;20480;-74
2023/05/05 00:21:28;;;;;;;6.23;4.80;;;21.00;73.40;;;;;;5040557;28;20196;-74
2023/05/05 00:23:54;;;;;;;5.43;5.00;;;21.00;73.40;;;;;;5049253;28;20417;-74
2023/05/05 00:26:25;;;;;;;6.13;5.53;;;20.90;73.40;;;;;;5075014;28;21014;-74
2023/05/05 00:28:54;;;;;;;5.07;4.67;;;20.90;73.40;;;;;;5040667;28;20208;-74
2023/05/05 00:31:20;;;;;;;5.97;5.23;;;21.00;73.60;;;;;;5056991;28;20430;-74
2023/05/05 00:33:46;;;;;;;5.70;5.20;;;20.90;73.50;;;;;;5040324;28;20518;-74
2023/05/05 00:36:14;;;;;;;5.53;4.90;;;20.90;73.70;;;;;;5057082;28;21002;-74
2023/05/05 00:38:40;;;;;;;5.20;4.80;;;20.90;73.80;;;;;;5040429;28;20447;-74
2023/05/05 00:41:08;;;;;;;6.30;5.07;;;20.90;73.90;;;;;;5040388;28;20526;-74
2023/05/05 00:43:34;;;;;;;5.60;5.20;;;20.90;74.30;;;;;;5056825;28;20442;-74
2023/05/05 00:46:13;;;;;;;5.20;4.80;;;20.90;74.10;;;;;;5040234;28;20897;-73
2023/05/05 00:48:42;;;;;;;5.47;4.97;;;20.80;74.00;;;;;;5041369;28;20489;-74
2023/05/05 00:51:09;;;;;;;5.70;5.13;;;20.80;74.00;;;;;;5074480;28;20426;-74
2023/05/05 00:53:40;;;;;;;4.67;4.37;;;20.90;74.20;;;;;;5056381;28;20543;-74
2023/05/05 00:56:14;;;;;;;5.93;5.00;;;20.80;74.20;;;;;;5040372;28;20461;-74
2023/05/05 00:58:46;;;;;;;4.90;4.50;;;20.80;74.20;;;;;;5056295;28;20473;-75
2023/05/05 01:01:14;;;;;;;5.40;4.83;;;20.80;74.30;;;;;;5056213;28;20430;-74
2023/05/05 01:03:40;;;;;;;4.97;4.47;;;20.80;74.50;;;;;;5074217;28;20995;-74
2023/05/05 01:06:33;;;;;;;5.10;4.70;;;20.80;74.40;;;;;;5023531;28;20437;-74
2023/05/05 01:09:18;;;;;;;6.07;5.00;;;20.70;74.50;;;;;;5022963;28;20518;-74
2023/05/05 01:11:44;;;;;;;5.93;5.40;;;20.70;74.60;;;;;;5055999;28;20408;-74
2023/05/05 01:14:15;;;;;;;5.13;4.63;;;20.70;74.70;;;;;;5056282;28;20404;-74
2023/05/05 01:16:58;;;;;;;6.30;5.00;;;20.70;74.70;;;;;;5039710;28;20496;-74
2023/05/05 01:19:45;;;;;;;5.30;4.80;;;20.70;74.80;;;;;;5039605;28;20428;-74
2023/05/05 01:22:16;;;;;;;7.07;6.37;;;20.70;75.00;;;;;;5055730;28;20440;-74
2023/05/05 01:24:53;;;;;;;5.70;5.20;;;20.60;75.00;;;;;;5039580;28;20408;-74
2023/05/05 01:27:26;;;;;;;5.47;5.07;;;20.60;75.10;;;;;;5039473;28;20452;-73
2023/05/05 01:30:18;;;;;;;6.83;5.20;;;20.60;75.20;;;;;;5055938;28;20443;-74
2023/05/05 01:32:51;;;;;;;5.67;5.17;;;20.60;75.30;;;;;;5055892;28;20505;-74
2023/05/05 01:35:24;;;;;;;5.87;5.27;;;20.60;75.40;;;;;;5073793;28;20469;-74
2023/05/05 01:38:10;;;;;;;5.27;4.77;;;20.60;75.60;;;;;;5022447;28;20472;-74
2023/05/05 01:40:45;;;;;;;5.60;5.10;;;20.60;75.70;;;;;;5039623;28;20446;-74
2023/05/05 01:43:13;;;;;;;7.93;5.27;;;20.50;75.70;;;;;;5055658;28;20439;-74
2023/05/05 01:45:42;;;;;;;6.13;5.53;;;20.50;75.80;;;;;;5022762;28;20435;-74
2023/05/05 01:48:11;;;;;;;6.17;5.57;;;20.50;75.90;;;;;;5073546;28;20771;-73
2023/05/05 01:50:45;;;;;;;5.70;5.03;;;20.50;76.00;;;;;;5038880;28;20566;-75
2023/05/05 01:53:16;;;;;;;6.27;5.67;;;20.50;76.10;;;;;;5054830;28;20459;-74
2023/05/05 01:55:43;;;;;;;5.77;5.17;;;20.50;76.10;;;;;;5055593;28;20429;-74
2023/05/05 01:58:13;;;;;;;5.30;4.80;;;20.40;76.00;;;;;;5038701;28;20981;-73
2023/05/05 02:00:40;;;;;;;5.53;5.00;;;20.40;76.20;;;;;;5038861;28;20431;-74
2023/05/05 02:03:10;;;;;;;5.90;5.20;;;20.40;76.30;;;;;;5071666;28;20798;-74
2023/05/05 02:05:38;;;;;;;4.97;4.50;;;20.40;76.50;;;;;;5055203;28;20902;-74
2023/05/05 02:08:08;;;;;;;5.73;5.23;;;20.40;76.50;;;;;;5022633;28;20412;-74
2023/05/05 02:10:41;;;;;;;6.03;5.37;;;20.40;76.60;;;;;;5055116;28;20800;-74
2023/05/05 02:13:14;;;;;;;6.17;5.40;;;20.30;76.60;;;;;;5071557;28;20940;-74
2023/05/05 02:15:42;;;;;;;5.47;5.07;;;20.30;76.70;;;;;;5055029;28;20419;-75
2023/05/05 02:18:09;;;;;;;5.90;5.30;;;20.30;76.80;;;;;;5071649;28;20517;-74
2023/05/05 02:20:39;;;;;;;5.83;5.30;;;20.30;76.90;;;;;;5054976;28;20910;-74
2023/05/05 02:23:06;;;;;;;6.77;5.60;;;20.30;76.90;;;;;;5034865;28;20441;-73
2023/05/05 02:25:41;;;;;;;7.27;5.23;;;20.30;77.00;;;;;;5035145;28;20424;-74
2023/05/05 02:28:17;;;;;;;5.67;5.20;;;20.30;77.20;;;;;;5034827;28;20498;-75
2023/05/05 02:30:43;;;;;;;6.13;5.43;;;20.30;77.20;;;;;;5034991;28;20416;-74
2023/05/05 02:33:17;;;;;;;5.37;4.93;;;20.30;77.40;;;;;;5052533;28;20482;-74
2023/05/05 02:35:45;;;;;;;6.00;5.40;;;20.20;77.40;;;;;;5034800;28;20424;-74
2023/05/05 02:38:16;;;;;;;6.37;5.77;;;20.20;77.50;;;;;;5034788;28;20936;-74
2023/05/05 02:40:49;;;;;;;5.50;5.00;;;20.20;77.60;;;;;;5034862;28;20400;-73
2023/05/05 02:43:20;;;;;;;5.63;5.13;;;20.20;77.80;;;;;;5034627;28;20447;-74
2023/05/05 02:45:49;;;;;;;6.20;5.30;;;20.20;77.90;;;;;;5034798;28;20451;-74
2023/05/05 02:48:21;;;;;;;6.20;5.60;;;20.20;78.00;;;;;;5052527;28;20408;-74
2023/05/05 02:50:51;;;;;;;7.03;6.23;;;20.10;78.00;;;;;;5034955;28;20394;-74
2023/05/05 02:53:29;;;;;;;5.67;5.17;;;20.20;78.30;;;;;;5049521;28;20456;-74
2023/05/05 02:56:22;;;;;;;7.93;5.57;;;20.10;78.30;;;;;;5071123;28;20407;-74
2023/05/05 02:59:01;;;;;;;7.53;5.90;;;20.10;78.50;;;;;;5055068;28;20446;-74
2023/05/05 03:01:56;;;;;;;6.43;5.80;;;20.10;78.70;;;;;;5054046;28;20436;-74
2023/05/05 03:04:30;;;;;;;6.33;5.70;;;20.10;78.80;;;;;;5070979;28;20437;-73
2023/05/05 03:07:09;;;;;;;8.50;5.27;;;20.10;79.00;;;;;;5049582;28;20431;-74
2023/05/05 03:09:55;;;;;;;7.67;5.67;;;20.00;79.00;;;;;;5074358;28;20458;-75
2023/05/05 03:12:32;;;;;;;5.97;5.47;;;20.00;79.20;;;;;;5072243;28;21021;-75
2023/05/05 03:15:10;;;;;;;6.20;5.60;;;20.00;79.30;;;;;;5051020;28;20412;-74
2023/05/05 03:17:38;;;;;;;6.20;5.60;;;20.00;79.40;;;;;;5034297;28;20451;-73
2023/05/05 03:20:11;;;;;;;6.20;5.60;;;20.00;79.60;;;;;;5034221;28;20397;-74
2023/05/05 03:22:42;;;;;;;6.87;6.27;;;20.00;79.80;;;;;;5040918;28;20525;-74
2023/05/05 03:25:11;;;;;;;5.97;5.47;;;20.00;79.90;;;;;;5070964;28;20411;-74
2023/05/05 03:27:39;;;;;;;8.03;5.77;;;20.00;80.00;;;;;;5054185;28;20421;-74
2023/05/05 03:30:09;;;;;;;6.13;5.60;;;19.90;80.00;;;;;;5070902;28;20410;-74
2023/05/05 03:32:39;;;;;;;6.90;5.40;;;19.90;80.20;;;;;;5038058;28;20428;-74
2023/05/05 03:35:08;;;;;;;7.60;6.33;;;19.90;80.30;;;;;;5041462;28;20467;-74
2023/05/05 03:37:34;;;;;;;6.83;6.10;;;19.90;80.40;;;;;;5020906;28;21004;-74
2023/05/05 03:40:00;;;;;;;6.40;5.80;;;19.90;80.50;;;;;;5038188;28;20407;-73
2023/05/05 03:42:32;;;;;;;7.60;6.13;;;19.90;80.70;;;;;;5054516;28;20439;-73
2023/05/05 03:45:01;;;;;;;7.43;6.10;;;19.90;80.90;;;;;;5021543;28;20488;-74
2023/05/05 03:47:29;;;;;;;7.30;5.70;;;19.90;81.80;;;;;;5037838;28;20528;-74
2023/05/05 03:49:56;;;;;;;6.97;5.67;;;19.90;81.10;;;;;;5060110;28;20435;-74
2023/05/05 03:52:24;;;;;;;5.90;5.40;;;19.80;81.90;;;;;;5062667;28;20439;-73
2023/05/05 03:54:53;;;;;;;5.93;5.43;;;19.80;81.30;;;;;;5041852;28;20525;-74
2023/05/05 03:57:21;;;;;;;7.10;6.40;;;19.80;81.30;;;;;;5024948;28;20455;-74
2023/05/05 03:59:49;;;;;;;7.90;5.83;;;19.80;81.40;;;;;;5040849;28;20395;-74
2023/05/05 04:02:17;;;;;;;5.93;5.43;;;19.80;81.50;;;;;;5057268;28;20203;-74
2023/05/05 04:04:43;;;;;;;6.40;5.80;;;19.80;81.70;;;;;;5057518;28;20415;-74
2023/05/05 04:07:10;;;;;;;8.40;6.00;;;19.70;81.60;;;;;;5041061;28;20438;-73
2023/05/05 04:09:43;;;;;;;6.60;5.97;;;19.70;81.80;;;;;;5074325;28;20403;-74
2023/05/05 04:12:12;;;;;;;6.37;5.80;;;19.70;81.90;;;;;;5040914;28;20426;-76
2023/05/05 04:14:44;;;;;;;8.03;6.60;;;19.70;82.00;;;;;;5075161;28;20803;-73
2023/05/05 04:17:12;;;;;;;6.90;6.30;;;19.70;82.10;;;;;;5057257;28;20462;-74
2023/05/05 04:19:41;;;;;;;6.73;6.10;;;19.70;82.20;;;;;;5040874;28;20432;-74
2023/05/05 04:22:08;;;;;;;6.93;5.93;;;19.70;82.30;;;;;;5073719;28;20441;-73
2023/05/05 04:24:36;;;;;;;5.93;5.40;;;19.70;82.40;;;;;;5073899;28;20411;-73
2023/05/05 04:29:55;;;;;;;7.33;6.70;;;19.70;82.70;;;;;;4908651;29;20474;-72
2023/05/05 04:32:24;;;;;;;6.20;5.60;;;19.60;82.70;;;;;;4890533;29;20444;-71
2023/05/05 04:34:55;;;;;;;6.67;5.97;;;19.60;82.80;;;;;;4882113;29;20783;-72
2023/05/05 04:37:24;;;;;;;6.70;6.00;;;19.60;83.00;;;;;;4913641;29;20462;-72
2023/05/05 04:39:51;;;;;;;6.30;5.70;;;19.60;83.00;;;;;;4901114;29;20869;-72
2023/05/05 04:42:19;;;;;;;7.20;6.50;;;19.60;83.10;;;;;;4916683;29;20456;-72
2023/05/05 04:44:47;;;;;;;6.87;6.20;;;19.60;84.00;;;;;;4916850;29;20403;-72
2023/05/05 04:47:16;;;;;;;6.60;5.60;;;19.60;83.30;;;;;;4916739;29;20454;-71
2023/05/05 04:49:45;;;;;;;6.83;6.20;;;19.60;83.40;;;;;;4916934;29;20530;-71
2023/05/05 04:52:13;;;;;;;6.40;5.80;;;19.50;83.40;;;;;;4927763;29;20491;-72
2023/05/05 04:54:41;;;;;;;8.37;6.03;;;19.50;83.60;;;;;;4935854;29;20424;-71
2023/05/05 04:57:07;;;;;;;7.37;6.37;;;19.50;83.70;;;;;;4919889;29;20459;-71
2023/05/05 04:59:40;;;;;;;6.77;6.07;;;19.50;83.90;;;;;;4935622;29;20448;-70
2023/05/05 05:02:11;;;;;;;7.10;6.00;;;19.50;84.00;;;;;;4935616;29;20453;-70
2023/05/05 05:04:37;;;;;;;6.97;6.27;;;19.50;84.10;;;;;;4935871;29;20412;-70
2023/05/05 05:07:02;;;;;;;7.27;6.60;;;19.50;84.20;;;;;;4931334;29;20572;-70
2023/05/05 05:09:29;;;;;;;6.60;6.10;;;19.50;85.10;;;;;;4916602;29;20478;-70
2023/05/05 05:11:59;;;;;;;6.53;5.70;;;19.50;84.40;;;;;;4916402;29;21043;-70
2023/05/05 05:14:26;;;;;;;6.70;6.00;;;19.40;84.40;;;;;;4917689;29;20463;-70
2023/05/05 05:16:53;;;;;;;6.37;5.77;;;19.40;84.60;;;;;;4916545;29;21052;-71
2023/05/05 05:19:21;;;;;;;6.47;5.87;;;19.40;84.60;;;;;;4917801;29;20415;-69
2023/05/05 05:21:47;;;;;;;7.37;6.67;;;19.40;84.70;;;;;;4916232;29;20934;-70
2023/05/05 05:24:13;;;;;;;6.97;6.17;;;19.40;84.80;;;;;;4916116;29;20422;-70
2023/05/05 05:26:41;;;;;;;7.13;6.53;;;19.40;84.90;;;;;;4916482;29;20491;-70
2023/05/05 05:29:12;;;;;;;6.80;5.90;;;19.40;85.00;;;;;;4915066;29;20450;-71
2023/05/05 05:31:38;;;;;;;6.63;6.03;;;19.40;85.10;;;;;;4899495;29;20454;-71
2023/05/05 05:34:05;;;;;;;7.50;6.80;;;19.40;85.30;;;;;;4899872;29;20453;-74
2023/05/05 05:36:32;;;;;;;7.30;6.60;;;19.40;85.40;;;;;;4900566;29;20483;-72
2023/05/05 05:39:01;;;;;;;6.93;6.33;;;19.40;85.50;;;;;;4915307;29;20441;-72
2023/05/05 05:41:30;;;;;;;6.90;6.30;;;19.40;85.60;;;;;;4899758;29;20449;-73
2023/05/05 05:43:58;;;;;;;7.20;6.50;;;19.40;85.80;;;;;;4900325;29;20500;-75
2023/05/05 05:46:25;;;;;;;7.30;6.27;;;19.40;85.90;;;;;;4899272;29;20434;-75
2023/05/05 05:48:53;;;;;;;9.20;6.40;;;19.40;86.10;;;;;;4892671;29;20453;-72
2023/05/05 05:51:22;;;;;;;9.47;6.97;;;19.30;86.00;;;;;;4913361;29;20410;-73
2023/05/05 05:53:55;;;;;;;6.80;6.20;;;19.30;86.20;;;;;;4911396;29;20474;-71
2023/05/05 05:56:26;;;;;;;7.10;6.40;;;19.30;86.30;;;;;;4898630;29;21043;-73
2023/05/05 05:58:52;;;;;;;6.57;5.87;;;19.30;86.40;;;;;;4899290;29;20449;-71
2023/05/05 06:01:19;;;;;;;7.70;6.90;;;19.30;86.50;;;;;;4887181;29;20460;-72
2023/05/05 06:03:45;;;;;;;10.07;6.90;;;19.30;86.50;;;;;;4898587;29;20513;-71
2023/05/05 06:06:12;;;;;;;8.10;6.80;;;19.30;86.60;;;;;;4886814;29;20929;-72
2023/05/05 06:08:40;;;;;;;7.93;6.83;;;19.30;86.70;;;;;;4880853;29;20430;-72
2023/05/05 06:11:08;;;;;;;7.90;6.83;;;19.30;86.80;;;;;;4897401;29;20890;-71
2023/05/05 06:13:34;;;;;;;7.97;7.27;;;19.30;86.90;;;;;;4880566;29;20437;-72
2023/05/05 06:16:03;;;;;;;8.73;7.60;;;19.30;87.20;;;;;;4891096;29;20830;-73
2023/05/05 06:18:30;;;;;;;11.90;7.40;;;19.30;87.30;;;;;;4896191;29;20424;-72
2023/05/05 06:21:01;;;;;;;8.10;6.93;;;19.30;87.40;;;;;;4914539;29;20415;-72
2023/05/05 06:23:28;;;;;;;8.13;7.33;;;19.30;87.50;;;;;;4905042;29;20450;-72
2023/05/05 06:26:00;;;;;;;8.53;7.73;;;19.30;87.50;;;;;;4884353;29;20436;-71
2023/05/05 06:28:28;;;;;;;8.60;7.37;;;19.30;87.50;;;;;;4914898;29;20444;-72
2023/05/05 06:30:56;;;;;;;7.70;6.90;;;19.30;87.70;;;;;;4916109;29;20846;-72
2023/05/05 06:33:22;;;;;;;11.10;7.93;;;19.30;87.80;;;;;;4915968;29;20442;-72
2023/05/05 06:35:51;;;;;;;8.30;7.37;;;19.30;87.80;;;;;;4916021;29;20425;-71
2023/05/05 06:38:21;;;;;;;8.03;7.20;;;19.30;87.90;;;;;;4915705;29;20524;-72
2023/05/05 06:40:52;;;;;;;8.60;7.70;;;19.30;87.60;;;;;;4915014;29;20406;-71
2023/05/05 06:43:19;;;;;;;10.57;7.47;;;19.30;87.60;;;;;;4914342;29;20847;-71
2023/05/05 06:45:54;;;;;;;9.70;8.77;;;19.30;87.60;;;;;;4914942;29;20960;-71
2023/05/05 06:48:23;;;;;;;9.10;8.27;;;19.30;88.20;;;;;;4916100;29;20406;-72
2023/05/05 06:50:49;;;;;;;9.87;8.97;;;19.30;88.50;;;;;;4882713;29;20564;-71
2023/05/05 06:53:15;;;;;;;9.60;8.63;;;19.30;88.80;;;;;;4895601;29;20446;-72
2023/05/05 06:55:44;;;;;;;8.97;8.17;;;19.30;89.10;;;;;;4913541;29;20435;-74
2023/05/05 06:58:13;;;;;;;9.87;8.50;;;19.30;89.40;;;;;;4898907;29;20488;-74
2023/05/05 07:00:39;;;;;;;9.77;8.87;;;19.30;89.10;;;;;;4915882;29;20418;-73
2023/05/05 07:03:08;;;;;;;9.23;8.30;;;19.40;89.00;;;;;;4898566;29;20450;-74
2023/05/05 07:05:36;;;;;;;9.87;8.83;;;19.40;89.10;;;;;;4898710;29;20453;-72
2023/05/05 07:08:05;;;;;;;9.37;8.43;;;19.40;89.20;;;;;;4895193;29;20949;-72
2023/05/05 07:10:32;;;;;;;8.47;7.63;;;19.40;89.10;;;;;;4897216;29;20490;-72
2023/05/05 07:13:00;;;;;;;8.03;7.27;;;19.40;89.10;;;;;;4897328;29;20443;-72
2023/05/05 07:15:31;;;;;;;9.17;6.80;;;19.40;89.20;;;;;;4899370;29;20425;-71
2023/05/05 07:17:57;;;;;;;9.33;6.90;;;19.40;89.20;;;;;;4898832;29;20557;-72
2023/05/05 07:20:25;;;;;;;7.77;7.07;;;19.40;89.00;;;;;;4916145;29;20439;-73
2023/05/05 07:22:56;;;;;;;7.23;6.20;;;19.40;89.20;;;;;;4898813;29;20468;-75
2023/05/05 07:25:22;;;;;;;7.37;6.67;;;19.40;89.20;;;;;;4899047;29;20438;-71
2023/05/05 07:27:52;;;;;;;7.27;6.57;;;19.50;89.10;;;;;;4916132;29;20449;-71
2023/05/05 07:30:19;;;;;;;6.50;5.90;;;19.50;89.00;;;;;;4916295;29;20449;-71
2023/05/05 07:32:47;;;;;;;6.67;6.07;;;19.50;89.00;;;;;;4916152;29;20433;-69
2023/05/05 07:35:13;;;;;;;6.20;5.60;;;19.50;88.90;;;;;;4899033;29;20421;-71
2023/05/05 07:37:41;;;;;;;8.47;6.67;;;19.50;88.80;;;;;;4915561;29;20516;-72
2023/05/05 07:40:08;;;;;;;6.90;6.30;;;19.50;88.80;;;;;;4898048;29;20429;-72
2023/05/05 07:42:36;;;;;;;8.50;7.17;;;19.50;89.30;;;;;;4913958;29;20465;-71
2023/05/05 07:45:04;;;;;;;7.90;7.10;;;19.50;89.30;;;;;;4898136;29;20831;-72
2023/05/05 07:47:32;;;;;;;7.77;5.87;;;19.50;89.50;;;;;;4911870;29;20434;-71
2023/05/05 07:50:03;;;;;;;6.93;6.20;;;19.50;89.60;;;;;;4895348;29;20473;-71
2023/05/05 07:52:29;;;;;;;6.20;5.60;;;19.60;89.50;;;;;;4898569;29;20590;-71
2023/05/05 07:54:57;;;;;;;9.30;7.00;;;19.60;89.40;;;;;;4915549;29;20417;-71
2023/05/05 07:57:24;;;;;;;9.33;5.97;;;19.60;89.40;;;;;;4898492;29;20472;-71
2023/05/05 07:59:52;;;;;;;7.53;6.80;;;19.60;89.40;;;;;;4898614;29;20167;-71
2023/05/05 08:02:23;;;;;;;8.53;6.20;;;19.60;89.40;;;;;;4898449;29;20500;-72
2023/05/05 08:04:48;;;;;;;6.30;5.57;;;19.60;89.50;;;;;;4898573;29;20546;-71
2023/05/05 08:07:17;;;;;;;7.60;6.47;;;19.60;89.60;;;;;;4915442;29;20902;-72
2023/05/05 08:09:43;;;;;;;6.33;5.50;;;19.60;89.80;;;;;;4894913;29;20482;-73
2023/05/05 08:12:11;;;;;;;6.37;5.83;;;19.60;89.80;;;;;;4895560;29;20814;-74
2023/05/05 08:14:41;;;;;;;6.77;6.07;;;19.60;89.70;;;;;;4913807;29;20724;-73
2023/05/05 08:17:07;;;;;;;6.67;5.97;;;19.60;89.50;;;;;;4912892;29;20470;-73
2023/05/05 08:19:33;;;;;;;8.47;5.33;;;19.70;89.60;;;;;;4915388;29;20590;-73
2023/05/05 08:22:02;;;;;;;5.63;5.13;;;19.70;89.80;;;;;;4917936;29;20953;-73
2023/05/05 08:24:30;;;;;;;7.13;6.33;;;19.70;89.70;;;;;;4900347;29;20859;-73
2023/05/05 08:26:56;;;;;;;7.83;5.83;;;19.70;89.80;;;;;;4917960;29;20433;-74
2023/05/05 08:29:22;;;;;;;6.43;5.87;;;19.70;90.00;;;;;;4917798;29;20546;-73
2023/05/05 08:31:50;;;;;;;6.00;5.30;;;19.70;90.00;;;;;;4901137;29;20460;-73
2023/05/05 08:34:16;;;;;;;6.50;5.90;;;19.70;89.90;;;;;;4901489;29;20922;-73
2023/05/05 08:36:44;;;;;;;7.13;6.40;;;19.70;90.00;;;;;;4917302;29;20493;-73
2023/05/05 08:39:13;;;;;;;7.00;5.57;;;19.80;90.10;;;;;;4912618;29;20466;-71
2023/05/05 08:41:39;;;;;;;6.33;5.73;;;19.80;90.20;;;;;;4900742;29;20490;-70
2023/05/05 08:44:07;;;;;;;5.23;4.83;;;19.80;90.20;;;;;;4900761;29;20444;-70
2023/05/05 08:46:35;;;;;;;6.60;5.50;;;19.80;90.20;;;;;;4917787;29;20430;-70
2023/05/05 08:49:02;;;;;;;4.60;4.20;;;19.80;90.10;;;;;;4900551;29;20449;-70
2023/05/05 08:51:40;;;;;;;6.33;4.87;;;19.80;90.00;;;;;;4900771;29;20432;-71
2023/05/05 08:54:13;;;;;;;5.47;4.97;;;19.80;90.00;;;;;;4917769;29;20775;-70
2023/05/05 08:56:44;;;;;;;5.97;5.40;;;19.90;90.10;;;;;;4915594;29;20515;-72
2023/05/05 08:59:14;;;;;;;5.57;5.17;;;19.90;90.10;;;;;;4897767;29;20886;-71
2023/05/05 09:01:43;;;;;;;5.50;4.80;;;19.90;90.20;;;;;;4900222;29;20411;-75
2023/05/05 09:04:12;;;;;;;5.47;4.93;;;19.90;90.50;;;;;;4916960;29;20500;-79
2023/05/05 09:06:40;;;;;;;6.20;5.50;;;19.90;90.20;;;;;;4898455;29;20424;-75
2023/05/05 09:09:09;;;;;;;5.50;5.00;;;20.00;90.20;;;;;;4917018;29;20475;-75
2023/05/05 09:11:36;;;;;;;5.60;5.10;;;20.00;90.20;;;;;;4901890;29;20804;-75
2023/05/05 09:14:05;;;;;;;6.00;5.17;;;20.00;90.80;;;;;;4917989;29;20462;-75
2023/05/05 09:16:31;;;;;;;5.80;5.20;;;20.00;90.40;;;;;;4901712;29;20467;-75
2023/05/05 09:19:03;;;;;;;4.80;4.40;;;20.10;90.50;;;;;;4916178;29;20442;-75
2023/05/05 09:21:29;;;;;;;5.30;4.80;;;20.10;90.50;;;;;;4901754;29;20182;-74
2023/05/05 09:24:11;;;;;;;8.20;4.73;;;20.10;90.50;;;;;;4901784;29;20449;-76
2023/05/05 09:26:47;;;;;;;6.67;4.70;;;20.10;90.40;;;;;;4902096;29;20486;-77
2023/05/05 09:29:20;;;;;;;5.83;5.23;;;20.10;90.40;;;;;;4917648;29;20455;-77
2023/05/05 09:32:09;;;;;;;10.57;5.00;;;20.10;90.50;;;;;;4916950;29;20436;-77
2023/05/05 09:34:36;;;;;;;5.70;4.40;;;20.10;90.50;;;;;;4917613;29;20430;-77
2023/05/05 09:37:09;;;;;;;5.73;4.80;;;20.20;90.50;;;;;;4886171;29;20472;-76
2023/05/05 09:39:35;;;;;;;5.10;4.70;;;20.20;90.50;;;;;;4901820;29;20422;-77
2023/05/05 09:42:02;;;;;;;4.77;4.37;;;20.30;90.40;;;;;;4917408;29;20462;-77
2023/05/05 09:44:34;;;;;;;5.43;4.93;;;20.30;90.50;;;;;;4917217;29;20912;-77
2023/05/05 09:47:02;;;;;;;4.40;4.00;;;20.30;90.50;;;;;;4917398;29;20487;-77
2023/05/05 09:49:29;;;;;;;5.40;4.30;;;20.30;90.50;;;;;;4901609;29;20453;-77
2023/05/05 09:51:56;;;;;;;5.37;4.47;;;20.40;90.50;;;;;;4901586;29;21089;-77
2023/05/05 09:54:26;;;;;;;4.77;4.37;;;20.40;90.40;;;;;;4901739;29;20435;-78
2023/05/05 09:56:53;;;;;;;5.20;4.57;;;20.40;90.40;;;;;;4902951;29;20471;-79
2023/05/05 09:59:20;;;;;;;4.40;4.00;;;20.50;90.50;;;;;;4919393;29;20793;-77
2023/05/05 10:01:49;;;;;;;4.80;4.40;;;20.50;90.40;;;;;;4902695;29;20407;-77
2023/05/05 10:04:41;;;;;;;5.20;4.70;;;20.50;90.40;;;;;;4903236;29;20474;-78
2023/05/05 10:07:21;;;;;;;5.03;4.10;;;20.60;90.40;;;;;;4917343;29;20471;-77
2023/05/05 10:09:47;;;;;;;4.83;4.43;;;20.60;90.40;;;;;;4901960;29;20466;-78
2023/05/05 10:12:13;;;;;;;4.70;4.30;;;20.60;90.40;;;;;;4902730;29;20439;-78
2023/05/05 10:14:39;;;;;;;4.77;4.37;;;20.70;90.40;;;;;;4919317;29;20474;-78
2023/05/05 10:17:08;;;;;;;4.90;4.40;;;20.70;90.40;;;;;;4919082;29;20454;-78
2023/05/05 10:19:38;;;;;;;5.30;4.77;;;20.70;90.30;;;;;;4901072;29;20474;-74
2023/05/05 10:22:08;;;;;;;4.47;4.00;;;20.70;90.70;;;;;;4897502;29;20450;-74
2023/05/05 10:24:41;;;;;;;4.67;4.30;;;20.80;90.40;;;;;;4895214;29;20443;-74
2023/05/05 10:27:20;;;;;;;4.93;4.40;;;20.80;90.30;;;;;;4896439;29;20458;-74
2023/05/05 10:29:53;;;;;;;4.83;4.43;;;20.90;90.40;;;;;;4897359;29;20478;-74
2023/05/05 10:32:44;;;;;;;4.37;3.97;;;20.90;90.40;;;;;;4897813;29;20815;-74
2023/05/05 10:35:17;;;;;;;4.80;4.30;;;21.00;90.40;;;;;;4897163;29;20423;-73
2023/05/05 10:37:46;;;;;;;4.37;3.90;;;21.00;90.30;;;;;;4893934;29;20531;-74
2023/05/05 10:40:19;;;;;;;5.60;4.73;;;21.00;90.40;;;;;;4894212;29;20472;-74
2023/05/05 10:42:48;;;;;;;7.20;4.37;;;21.00;90.20;;;;;;4893087;29;20447;-72
2023/05/05 10:45:14;;;;;;;8.57;6.87;;;21.10;90.20;;;;;;4894211;29;21033;-72
2023/05/05 10:47:43;;;;;;;13.80;7.80;;;21.10;90.60;;;;;;4894161;29;20435;-73
2023/05/05 10:50:20;;;;;;;10.40;6.60;;;21.20;91.50;;;;;;4894417;29;20460;-72
2023/05/05 10:53:11;;;;;;;7.50;5.90;;;21.20;91.20;;;;;;4895205;29;20471;-72
2023/05/05 10:55:53;;;;;;;8.97;5.90;;;21.30;91.40;;;;;;4878589;29;20797;-72
2023/05/05 10:58:40;;;;;;;7.50;6.73;;;21.30;90.60;;;;;;4878585;29;20469;-72
2023/05/05 11:01:08;;;;;;;8.67;6.80;;;21.40;90.50;;;;;;4894755;29;20428;-72
2023/05/05 11:03:35;;;;;;;51.60;9.90;;;21.40;90.20;;;;;;4894126;29;20436;-72
2023/05/05 11:06:03;;;;;;;9.70;7.97;;;21.40;91.60;;;;;;4894248;29;20495;-72
2023/05/05 11:08:30;;;;;;;11.70;6.40;;;21.50;90.40;;;;;;4893460;29;20515;-72
2023/05/05 11:10:58;;;;;;;7.60;6.03;;;21.50;90.30;;;;;;4893615;29;20413;-72
2023/05/05 11:13:25;;;;;;;8.67;4.87;;;21.50;90.40;;;;;;4893427;29;20550;-72
2023/05/05 11:15:53;;;;;;;11.00;5.67;;;21.50;90.50;;;;;;4893378;29;20410;-72
2023/05/05 11:18:36;;;;;;;9.03;5.37;;;21.50;90.30;;;;;;4893707;29;20464;-72
2023/05/05 11:21:15;;;;;;;6.80;5.30;;;21.60;90.20;;;;;;4913167;29;20442;-72
2023/05/05 11:23:50;;;;;;;7.27;4.63;;;21.60;90.10;;;;;;4909788;29;20474;-72
2023/05/05 11:26:37;;;;;;;7.20;5.03;;;21.60;90.10;;;;;;4895323;29;20542;-72
2023/05/05 11:29:04;;;;;;;6.63;4.43;;;21.70;90.10;;;;;;4896172;29;20440;-72
2023/05/05 11:31:37;;;;;;;7.63;4.10;;;21.70;90.00;;;;;;4896561;29;20540;-70
2023/05/05 11:34:26;;;;;;;10.27;4.93;;;21.70;90.00;;;;;;4910012;29;20454;-70
2023/05/05 11:36:57;;;;;;;4.07;3.77;;;21.70;90.00;;;;;;4891043;29;20505;-71
2023/05/05 11:39:35;;;;;;;5.47;4.23;;;21.80;90.10;;;;;;4891711;29;20482;-72
2023/05/05 11:42:22;;;;;;;4.80;4.40;;;21.80;90.40;;;;;;4877833;29;20548;-73
2023/05/05 11:44:49;;;;;;;7.40;4.20;;;21.80;91.10;;;;;;4893782;29;20477;-72
2023/05/05 11:47:15;;;;;;;5.57;4.27;;;21.80;91.70;;;;;;4893558;29;20435;-73
2023/05/05 11:49:41;;;;;;;5.83;4.27;;;21.70;91.90;;;;;;4894548;29;20460;-71
2023/05/05 11:52:14;;;;;;;5.90;4.40;;;21.70;91.90;;;;;;4895959;29;20450;-71
2023/05/05 11:54:46;;;;;;;7.13;4.10;;;21.70;91.90;;;;;;4881363;29;20435;-71
2023/05/05 11:57:20;;;;;;;6.00;3.93;;;21.70;92.10;;;;;;4898459;29;20481;-71
2023/05/05 11:59:53;;;;;;;4.53;3.60;;;21.70;92.30;;;;;;4898532;29;20993;-71
2023/05/05 12:02:23;;;;;;;4.90;3.30;;;21.70;92.50;;;;;;4899067;29;20437;-71
2023/05/05 12:04:52;;;;;;;8.80;3.13;;;21.70;92.50;;;;;;4898611;29;20950;-70
2023/05/05 12:07:21;;;;;;;4.60;3.07;;;21.60;92.50;;;;;;4901965;29;20424;-73
2023/05/05 12:09:51;;;;;;;6.67;3.00;;;21.60;92.60;;;;;;4917759;29;20430;-74
2023/05/05 12:12:19;;;;;;;5.33;3.40;;;21.60;92.60;;;;;;4916777;29;20472;-73
2023/05/05 12:14:53;;;;;;;4.90;2.60;;;21.60;92.60;;;;;;4917443;29;20849;-74
2023/05/05 12:17:22;;;;;;;5.03;2.90;;;21.60;92.60;;;;;;4917025;29;20469;-74
2023/05/05 12:19:54;;;;;;;3.90;2.53;;;21.60;92.70;;;;;;4917275;29;20495;-71
2023/05/05 12:22:26;;;;;;;3.83;2.80;;;21.60;92.90;;;;;;4901522;29;20447;-72
2023/05/05 12:24:58;;;;;;;4.57;2.80;;;21.50;92.90;;;;;;4918977;29;20479;-76
2023/05/05 12:27:28;;;;;;;4.27;2.80;;;21.50;92.90;;;;;;4917238;29;20440;-71
2023/05/05 12:30:08;;;;;;;3.40;2.83;;;21.50;93.00;;;;;;4917616;29;20824;-72
2023/05/05 12:32:41;;;;;;;2.93;2.73;;;21.50;93.10;;;;;;4916700;29;20525;-71
2023/05/05 12:35:08;;;;;;;3.30;2.60;;;21.50;93.10;;;;;;4916509;29;20508;-72
2023/05/05 12:37:36;;;;;;;2.80;2.13;;;21.50;93.30;;;;;;5006097;23;20540;-72
2023/05/05 12:40:41;;;;;;;2.73;2.23;;;21.50;93.40;;;;;;4977987;28;20480;-72
2023/05/05 12:43:09;;;;;;;3.30;2.50;;;21.50;93.40;;;;;;4958029;28;20794;-72
2023/05/05 12:45:40;;;;;;;3.53;2.73;;;21.50;93.50;;;;;;4974125;28;20429;-72
2023/05/05 12:48:27;;;;;;;3.70;2.40;;;21.40;93.50;;;;;;4974916;28;20445;-72
2023/05/05 12:51:15;;;;;;;2.60;2.40;;;21.50;93.60;;;;;;4957965;28;20500;-72
2023/05/05 12:53:44;;;;;;;3.60;2.40;;;21.50;93.60;;;;;;4958065;28;20518;-72
2023/05/05 12:56:29;;;;;;;2.93;2.43;;;21.40;93.70;;;;;;4974762;28;20520;-72
2023/05/05 12:58:55;;;;;;;3.47;2.10;;;21.50;93.60;;;;;;4957913;28;20433;-72
2023/05/05 13:01:21;;;;;;;3.10;2.50;;;21.40;93.60;;;;;;4957338;28;20419;-72
2023/05/05 13:04:07;;;;;;;4.90;2.10;;;21.50;93.80;;;;;;4957688;28;20441;-72
2023/05/05 13:06:44;;;;;;;3.60;2.47;;;21.50;93.80;;;;;;4973541;28;20414;-72